sensor_id;sensor_type;location;lat;lon;timestamp;temperature;humidity
5870;DHT22;2961;47.702;9.410;2023-10-31T00:01:29;9.80;99.90
5870;DHT22;2961;47.702;9.410;2023-10-31T00:03:56;9.80;99.90
5870;DHT22;2961;47.702;9.410;2023-10-31T00:06:24;9.80;99.90
5870;DHT22;2961;47.702;9.410;2023-10-31T00:08:51;9.80;99.90
5870;DHT22;2961;47.702;9.410;2023-10-31T00:11:18;9.80;99.90
5870;DHT22;2961;47.702;9.410;2023-10-31T00:13:45;9.90;99.90
5870;DHT22;2961;47.702;9.410;2023-10-31T00:16:11;9.90;99.90
5870;DHT22;2961;47.702;9.410;2023-10-31T00:18:38;9.90;99.90
5870;DHT22;2961;47.702;9.410;2023-10-31T00:21:05;9.90;99.90
5870;DHT22;2961;47.702;9.410;2023-10-31T00:23:33;9.90;99.90
5870;DHT22;2961;47.702;9.410;2023-10-31T00:26:00;9.80;99.90
5870;DHT22;2961;47.702;9.410;2023-10-31T00:28:27;9.90;99.90
5870;DHT22;2961;47.702;9.410;2023-10-31T00:30:53;9.80;99.90
5870;DHT22;2961;47.702;9.410;2023-10-31T00:33:20;9.80;99.90
5870;DHT22;2961;47.702;9.410;2023-10-31T00:35:47;9.80;99.90
5870;DHT22;2961;47.702;9.410;2023-10-31T00:38:14;9.90;99.90
5870;DHT22;2961;47.702;9.410;2023-10-31T00:40:42;9.90;99.90
5870;DHT22;2961;47.702;9.410;2023-10-31T00:43:09;9.80;99.90
5870;DHT22;2961;47.702;9.410;2023-10-31T00:45:35;9.90;99.90
5870;DHT22;2961;47.702;9.410;2023-10-31T00:48:02;9.80;99.90
5870;DHT22;2961;47.702;9.410;2023-10-31T00:50:29;9.90;99.90
5870;DHT22;2961;47.702;9.410;2023-10-31T00:52:56;9.90;99.90
5870;DHT22;2961;47.702;9.410;2023-10-31T00:55:23;9.90;99.90
5870;DHT22;2961;47.702;9.410;2023-10-31T00:57:51;9.90;99.90
5870;DHT22;2961;47.702;9.410;2023-10-31T01:00:19;9.90;99.90
5870;DHT22;2961;47.702;9.410;2023-10-31T01:02:45;9.90;99.90
5870;DHT22;2961;47.702;9.410;2023-10-31T01:05:12;9.80;99.90
5870;DHT22;2961;47.702;9.410;2023-10-31T01:07:39;9.70;99.90
5870;DHT22;2961;47.702;9.410;2023-10-31T01:10:07;9.70;99.90
5870;DHT22;2961;47.702;9.410;2023-10-31T01:12:34;9.60;99.90
5870;DHT22;2961;47.702;9.410;2023-10-31T01:15:02;9.70;99.90
5870;DHT22;2961;47.702;9.410;2023-10-31T01:17:29;9.70;99.90
5870;DHT22;2961;47.702;9.410;2023-10-31T01:19:56;9.80;99.90
5870;DHT22;2961;47.702;9.410;2023-10-31T01:22:22;9.80;99.90
5870;DHT22;2961;47.702;9.410;2023-10-31T01:24:49;9.80;99.90
5870;DHT22;2961;47.702;9.410;2023-10-31T01:27:16;9.80;99.90
5870;DHT22;2961;47.702;9.410;2023-10-31T01:29:43;9.80;99.90
5870;DHT22;2961;47.702;9.410;2023-10-31T01:32:11;9.80;99.90
5870;DHT22;2961;47.702;9.410;2023-10-31T01:34:37;9.90;99.90
5870;DHT22;2961;47.702;9.410;2023-10-31T01:37:04;9.90;99.90
5870;DHT22;2961;47.702;9.410;2023-10-31T01:39:31;9.90;99.90
5870;DHT22;2961;47.702;9.410;2023-10-31T01:41:58;9.80;99.90
5870;DHT22;2961;47.702;9.410;2023-10-31T01:44:25;9.80;99.90
5870;DHT22;2961;47.702;9.410;2023-10-31T01:46:52;9.90;99.90
5870;DHT22;2961;47.702;9.410;2023-10-31T01:49:20;9.80;99.90
5870;DHT22;2961;47.702;9.410;2023-10-31T01:51:47;9.80;99.90
5870;DHT22;2961;47.702;9.410;2023-10-31T01:54:14;9.70;99.90
5870;DHT22;2961;47.702;9.410;2023-10-31T01:56:42;9.70;99.90
5870;DHT22;2961;47.702;9.410;2023-10-31T01:59:10;9.70;99.90
5870;DHT22;2961;47.702;9.410;2023-10-31T02:01:38;9.70;99.90
5870;DHT22;2961;47.702;9.410;2023-10-31T02:04:06;9.60;99.90
5870;DHT22;2961;47.702;9.410;2023-10-31T02:06:34;9.60;99.90
5870;DHT22;2961;47.702;9.410;2023-10-31T02:09:00;9.60;99.90
5870;DHT22;2961;47.702;9.410;2023-10-31T02:11:27;9.60;99.90
5870;DHT22;2961;47.702;9.410;2023-10-31T02:13:54;9.60;99.90
5870;DHT22;2961;47.702;9.410;2023-10-31T02:16:21;9.60;99.90
5870;DHT22;2961;47.702;9.410;2023-10-31T02:18:48;9.50;99.90
5870;DHT22;2961;47.702;9.410;2023-10-31T02:21:15;9.50;99.90
5870;DHT22;2961;47.702;9.410;2023-10-31T02:23:56;9.50;99.90
5870;DHT22;2961;47.702;9.410;2023-10-31T02:26:23;9.50;99.90
5870;DHT22;2961;47.702;9.410;2023-10-31T02:28:50;9.50;99.90
5870;DHT22;2961;47.702;9.410;2023-10-31T02:31:17;9.50;99.90
5870;DHT22;2961;47.702;9.410;2023-10-31T02:33:44;9.50;99.90
5870;DHT22;2961;47.702;9.410;2023-10-31T02:36:10;9.50;99.90
5870;DHT22;2961;47.702;9.410;2023-10-31T02:38:37;9.50;99.90
5870;DHT22;2961;47.702;9.410;2023-10-31T02:41:05;9.50;99.90
5870;DHT22;2961;47.702;9.410;2023-10-31T02:43:32;9.50;99.90
5870;DHT22;2961;47.702;9.410;2023-10-31T02:45:59;9.50;99.90
5870;DHT22;2961;47.702;9.410;2023-10-31T02:48:26;9.50;99.90
5870;DHT22;2961;47.702;9.410;2023-10-31T02:50:53;9.50;99.90
5870;DHT22;2961;47.702;9.410;2023-10-31T02:53:20;9.40;99.90
5870;DHT22;2961;47.702;9.410;2023-10-31T02:55:46;9.40;99.90
5870;DHT22;2961;47.702;9.410;2023-10-31T02:58:15;9.40;99.90
5870;DHT22;2961;47.702;9.410;2023-10-31T03:00:42;9.40;99.90
5870;DHT22;2961;47.702;9.410;2023-10-31T03:03:09;9.30;99.90
5870;DHT22;2961;47.702;9.410;2023-10-31T03:05:36;9.30;99.90
5870;DHT22;2961;47.702;9.410;2023-10-31T03:08:03;9.40;99.90
5870;DHT22;2961;47.702;9.410;2023-10-31T03:10:30;9.40;99.90
5870;DHT22;2961;47.702;9.410;2023-10-31T03:12:57;9.40;99.90
5870;DHT22;2961;47.702;9.410;2023-10-31T03:15:26;9.30;99.90
5870;DHT22;2961;47.702;9.410;2023-10-31T03:17:53;9.40;99.90
5870;DHT22;2961;47.702;9.410;2023-10-31T03:20:19;9.30;99.90
5870;DHT22;2961;47.702;9.410;2023-10-31T03:22:46;9.30;99.90
5870;DHT22;2961;47.702;9.410;2023-10-31T03:25:13;9.20;99.90
5870;DHT22;2961;47.702;9.410;2023-10-31T03:27:40;9.30;99.90
5870;DHT22;2961;47.702;9.410;2023-10-31T03:30:07;9.30;99.90
5870;DHT22;2961;47.702;9.410;2023-10-31T03:32:36;9.30;99.90
5870;DHT22;2961;47.702;9.410;2023-10-31T03:35:03;9.30;99.90
5870;DHT22;2961;47.702;9.410;2023-10-31T03:37:30;9.30;99.90
5870;DHT22;2961;47.702;9.410;2023-10-31T03:39:57;9.40;99.90
5870;DHT22;2961;47.702;9.410;2023-10-31T03:42:23;9.40;99.90
5870;DHT22;2961;47.702;9.410;2023-10-31T03:44:50;9.40;99.90
5870;DHT22;2961;47.702;9.410;2023-10-31T03:47:17;9.50;99.90
5870;DHT22;2961;47.702;9.410;2023-10-31T03:49:45;9.50;99.90
5870;DHT22;2961;47.702;9.410;2023-10-31T03:52:12;9.50;99.90
5870;DHT22;2961;47.702;9.410;2023-10-31T03:54:38;9.50;99.90
5870;DHT22;2961;47.702;9.410;2023-10-31T03:57:05;9.40;99.90
5870;DHT22;2961;47.702;9.410;2023-10-31T03:59:32;9.40;99.90
5870;DHT22;2961;47.702;9.410;2023-10-31T04:01:59;9.30;99.90
5870;DHT22;2961;47.702;9.410;2023-10-31T04:04:25;9.30;99.90
5870;DHT22;2961;47.702;9.410;2023-10-31T04:06:54;9.30;99.90
5870;DHT22;2961;47.702;9.410;2023-10-31T04:09:20;9.30;99.90
5870;DHT22;2961;47.702;9.410;2023-10-31T04:11:47;9.20;99.90
5870;DHT22;2961;47.702;9.410;2023-10-31T04:14:14;9.20;99.90
5870;DHT22;2961;47.702;9.410;2023-10-31T04:16:41;9.30;99.90
5870;DHT22;2961;47.702;9.410;2023-10-31T04:19:11;9.30;99.90
5870;DHT22;2961;47.702;9.410;2023-10-31T04:21:38;9.20;99.90
5870;DHT22;2961;47.702;9.410;2023-10-31T04:24:07;9.20;99.90
5870;DHT22;2961;47.702;9.410;2023-10-31T04:26:34;9.20;99.90
5870;DHT22;2961;47.702;9.410;2023-10-31T04:29:00;9.20;99.90
5870;DHT22;2961;47.702;9.410;2023-10-31T04:31:27;9.20;99.90
5870;DHT22;2961;47.702;9.410;2023-10-31T04:33:54;9.20;99.90
5870;DHT22;2961;47.702;9.410;2023-10-31T04:36:21;9.10;99.90
5870;DHT22;2961;47.702;9.410;2023-10-31T04:38:47;9.20;99.90
5870;DHT22;2961;47.702;9.410;2023-10-31T04:41:15;9.20;99.90
5870;DHT22;2961;47.702;9.410;2023-10-31T04:43:42;9.10;99.90
5870;DHT22;2961;47.702;9.410;2023-10-31T04:46:09;9.10;99.90
5870;DHT22;2961;47.702;9.410;2023-10-31T04:48:36;9.00;99.90
5870;DHT22;2961;47.702;9.410;2023-10-31T04:51:03;9.00;99.90
5870;DHT22;2961;47.702;9.410;2023-10-31T04:53:30;9.00;99.90
5870;DHT22;2961;47.702;9.410;2023-10-31T04:55:58;8.90;99.90
5870;DHT22;2961;47.702;9.410;2023-10-31T04:58:26;8.80;99.90
5870;DHT22;2961;47.702;9.410;2023-10-31T05:00:53;8.80;99.90
5870;DHT22;2961;47.702;9.410;2023-10-31T05:03:20;8.80;99.90
5870;DHT22;2961;47.702;9.410;2023-10-31T05:05:46;8.90;99.90
5870;DHT22;2961;47.702;9.410;2023-10-31T05:08:13;8.80;99.90
5870;DHT22;2961;47.702;9.410;2023-10-31T05:10:40;8.80;99.90
5870;DHT22;2961;47.702;9.410;2023-10-31T05:13:07;8.80;99.90
5870;DHT22;2961;47.702;9.410;2023-10-31T05:15:35;8.80;99.90
5870;DHT22;2961;47.702;9.410;2023-10-31T05:18:01;8.80;99.90
5870;DHT22;2961;47.702;9.410;2023-10-31T05:20:28;8.80;99.90
5870;DHT22;2961;47.702;9.410;2023-10-31T05:22:55;8.70;99.90
5870;DHT22;2961;47.702;9.410;2023-10-31T05:25:22;8.70;99.90
5870;DHT22;2961;47.702;9.410;2023-10-31T05:27:48;8.70;99.90
5870;DHT22;2961;47.702;9.410;2023-10-31T05:30:15;8.70;99.90
5870;DHT22;2961;47.702;9.410;2023-10-31T05:32:43;8.80;99.90
5870;DHT22;2961;47.702;9.410;2023-10-31T05:35:10;8.70;99.90
5870;DHT22;2961;47.702;9.410;2023-10-31T05:37:37;8.60;99.90
5870;DHT22;2961;47.702;9.410;2023-10-31T05:40:05;8.60;99.90
5870;DHT22;2961;47.702;9.410;2023-10-31T05:42:32;8.60;99.90
5870;DHT22;2961;47.702;9.410;2023-10-31T05:44:59;8.50;99.90
5870;DHT22;2961;47.702;9.410;2023-10-31T05:47:26;8.50;99.90
5870;DHT22;2961;47.702;9.410;2023-10-31T05:49:54;8.60;99.90
5870;DHT22;2961;47.702;9.410;2023-10-31T05:52:21;8.60;99.90
5870;DHT22;2961;47.702;9.410;2023-10-31T05:54:48;8.50;99.90
5870;DHT22;2961;47.702;9.410;2023-10-31T05:57:15;8.60;99.90
5870;DHT22;2961;47.702;9.410;2023-10-31T05:59:41;8.60;99.90
5870;DHT22;2961;47.702;9.410;2023-10-31T06:02:08;8.60;99.90
5870;DHT22;2961;47.702;9.410;2023-10-31T06:04:35;8.60;99.90
5870;DHT22;2961;47.702;9.410;2023-10-31T06:07:04;8.60;99.90
5870;DHT22;2961;47.702;9.410;2023-10-31T06:09:30;8.60;99.90
5870;DHT22;2961;47.702;9.410;2023-10-31T06:11:58;8.60;99.90
5870;DHT22;2961;47.702;9.410;2023-10-31T06:14:25;8.50;99.90
5870;DHT22;2961;47.702;9.410;2023-10-31T06:16:52;8.50;99.90
5870;DHT22;2961;47.702;9.410;2023-10-31T06:19:19;8.50;99.90
5870;DHT22;2961;47.702;9.410;2023-10-31T06:21:46;8.40;99.90
5870;DHT22;2961;47.702;9.410;2023-10-31T06:24:15;8.50;99.90
5870;DHT22;2961;47.702;9.410;2023-10-31T06:26:41;8.60;99.90
5870;DHT22;2961;47.702;9.410;2023-10-31T06:29:08;8.50;99.90
5870;DHT22;2961;47.702;9.410;2023-10-31T06:31:35;8.50;99.90
5870;DHT22;2961;47.702;9.410;2023-10-31T06:34:02;8.40;99.90
5870;DHT22;2961;47.702;9.410;2023-10-31T06:36:28;8.50;99.90
5870;DHT22;2961;47.702;9.410;2023-10-31T06:38:55;8.40;99.90
5870;DHT22;2961;47.702;9.410;2023-10-31T06:41:23;8.50;99.90
5870;DHT22;2961;47.702;9.410;2023-10-31T06:43:50;8.40;99.90
5870;DHT22;2961;47.702;9.410;2023-10-31T06:46:17;8.40;99.90
5870;DHT22;2961;47.702;9.410;2023-10-31T06:48:44;8.40;99.90
5870;DHT22;2961;47.702;9.410;2023-10-31T06:51:12;8.40;99.90
5870;DHT22;2961;47.702;9.410;2023-10-31T06:53:38;8.40;99.90
5870;DHT22;2961;47.702;9.410;2023-10-31T06:56:06;8.40;99.90
5870;DHT22;2961;47.702;9.410;2023-10-31T06:58:34;8.50;99.90
5870;DHT22;2961;47.702;9.410;2023-10-31T07:01:01;8.40;99.90
5870;DHT22;2961;47.702;9.410;2023-10-31T07:03:28;8.40;99.90
5870;DHT22;2961;47.702;9.410;2023-10-31T07:05:55;8.50;99.90
5870;DHT22;2961;47.702;9.410;2023-10-31T07:08:22;8.50;99.90
5870;DHT22;2961;47.702;9.410;2023-10-31T07:10:49;8.50;99.90
5870;DHT22;2961;47.702;9.410;2023-10-31T07:13:16;8.60;99.90
5870;DHT22;2961;47.702;9.410;2023-10-31T07:15:44;8.60;99.90
5870;DHT22;2961;47.702;9.410;2023-10-31T07:18:12;8.70;99.90
5870;DHT22;2961;47.702;9.410;2023-10-31T07:20:38;8.70;99.90
5870;DHT22;2961;47.702;9.410;2023-10-31T07:23:05;8.80;99.90
5870;DHT22;2961;47.702;9.410;2023-10-31T07:25:32;8.80;99.90
5870;DHT22;2961;47.702;9.410;2023-10-31T07:27:59;8.90;99.90
5870;DHT22;2961;47.702;9.410;2023-10-31T07:30:25;9.00;99.90
5870;DHT22;2961;47.702;9.410;2023-10-31T07:32:53;9.00;99.90
5870;DHT22;2961;47.702;9.410;2023-10-31T07:35:20;9.20;99.90
5870;DHT22;2961;47.702;9.410;2023-10-31T07:37:47;9.20;99.90
5870;DHT22;2961;47.702;9.410;2023-10-31T07:40:22;9.20;99.90
5870;DHT22;2961;47.702;9.410;2023-10-31T07:42:49;9.30;99.90
5870;DHT22;2961;47.702;9.410;2023-10-31T07:45:16;9.30;99.90
5870;DHT22;2961;47.702;9.410;2023-10-31T07:47:42;9.30;99.90
5870;DHT22;2961;47.702;9.410;2023-10-31T07:50:11;9.30;99.90
5870;DHT22;2961;47.702;9.410;2023-10-31T07:52:38;9.30;99.90
5870;DHT22;2961;47.702;9.410;2023-10-31T07:55:06;9.30;99.90
5870;DHT22;2961;47.702;9.410;2023-10-31T07:57:33;9.40;99.90
5870;DHT22;2961;47.702;9.410;2023-10-31T08:00:00;9.50;99.90
5870;DHT22;2961;47.702;9.410;2023-10-31T08:02:26;9.50;99.90
5870;DHT22;2961;47.702;9.410;2023-10-31T08:04:53;9.60;99.90
5870;DHT22;2961;47.702;9.410;2023-10-31T08:07:21;9.60;99.90
5870;DHT22;2961;47.702;9.410;2023-10-31T08:09:49;9.70;99.90
5870;DHT22;2961;47.702;9.410;2023-10-31T08:12:15;9.70;99.90
5870;DHT22;2961;47.702;9.410;2023-10-31T08:14:42;9.80;99.90
5870;DHT22;2961;47.702;9.410;2023-10-31T08:17:09;9.80;99.90
5870;DHT22;2961;47.702;9.410;2023-10-31T08:19:36;10.00;99.90
5870;DHT22;2961;47.702;9.410;2023-10-31T08:22:04;10.00;99.90
5870;DHT22;2961;47.702;9.410;2023-10-31T08:24:32;10.10;99.90
5870;DHT22;2961;47.702;9.410;2023-10-31T08:27:00;10.10;99.90
5870;DHT22;2961;47.702;9.410;2023-10-31T08:29:26;10.10;99.90
5870;DHT22;2961;47.702;9.410;2023-10-31T08:31:53;10.20;99.90
5870;DHT22;2961;47.702;9.410;2023-10-31T08:34:20;10.30;99.90
5870;DHT22;2961;47.702;9.410;2023-10-31T08:36:47;10.30;99.90
5870;DHT22;2961;47.702;9.410;2023-10-31T08:39:13;10.30;99.90
5870;DHT22;2961;47.702;9.410;2023-10-31T08:41:51;10.30;99.90
5870;DHT22;2961;47.702;9.410;2023-10-31T08:44:17;10.30;99.90
5870;DHT22;2961;47.702;9.410;2023-10-31T08:46:44;10.30;99.90
5870;DHT22;2961;47.702;9.410;2023-10-31T08:49:11;10.40;99.90
5870;DHT22;2961;47.702;9.410;2023-10-31T08:51:38;10.30;99.90
5870;DHT22;2961;47.702;9.410;2023-10-31T08:54:05;10.40;99.90
5870;DHT22;2961;47.702;9.410;2023-10-31T08:56:33;10.40;99.90
5870;DHT22;2961;47.702;9.410;2023-10-31T08:59:01;10.50;99.90
5870;DHT22;2961;47.702;9.410;2023-10-31T09:01:28;10.50;99.90
5870;DHT22;2961;47.702;9.410;2023-10-31T09:03:55;10.60;99.90
5870;DHT22;2961;47.702;9.410;2023-10-31T09:06:23;10.60;99.90
5870;DHT22;2961;47.702;9.410;2023-10-31T09:08:50;10.70;99.90
5870;DHT22;2961;47.702;9.410;2023-10-31T09:11:17;10.70;99.90
5870;DHT22;2961;47.702;9.410;2023-10-31T09:13:44;10.80;99.90
5870;DHT22;2961;47.702;9.410;2023-10-31T09:16:12;10.80;99.90
5870;DHT22;2961;47.702;9.410;2023-10-31T09:18:39;10.90;99.90
5870;DHT22;2961;47.702;9.410;2023-10-31T09:21:07;11.10;99.90
5870;DHT22;2961;47.702;9.410;2023-10-31T09:23:33;11.20;99.90
5870;DHT22;2961;47.702;9.410;2023-10-31T09:26:00;11.20;99.90
5870;DHT22;2961;47.702;9.410;2023-10-31T09:28:28;11.10;99.90
5870;DHT22;2961;47.702;9.410;2023-10-31T09:30:54;11.10;99.90
5870;DHT22;2961;47.702;9.410;2023-10-31T09:33:22;11.20;99.90
5870;DHT22;2961;47.702;9.410;2023-10-31T09:35:49;11.20;99.90
5870;DHT22;2961;47.702;9.410;2023-10-31T09:38:16;11.20;99.90
5870;DHT22;2961;47.702;9.410;2023-10-31T09:40:43;11.00;99.90
5870;DHT22;2961;47.702;9.410;2023-10-31T09:43:09;10.90;99.90
5870;DHT22;2961;47.702;9.410;2023-10-31T09:45:36;10.80;99.90
5870;DHT22;2961;47.702;9.410;2023-10-31T09:48:03;10.80;99.90
5870;DHT22;2961;47.702;9.410;2023-10-31T09:50:32;10.80;99.90
5870;DHT22;2961;47.702;9.410;2023-10-31T09:53:00;10.80;99.90
5870;DHT22;2961;47.702;9.410;2023-10-31T09:55:27;10.80;99.90
5870;DHT22;2961;47.702;9.410;2023-10-31T09:57:55;11.00;99.90
5870;DHT22;2961;47.702;9.410;2023-10-31T10:00:22;10.90;99.90
5870;DHT22;2961;47.702;9.410;2023-10-31T10:02:49;11.00;99.90
5870;DHT22;2961;47.702;9.410;2023-10-31T10:05:16;10.90;99.90
5870;DHT22;2961;47.702;9.410;2023-10-31T10:07:45;10.90;99.90
5870;DHT22;2961;47.702;9.410;2023-10-31T10:10:12;10.90;99.90
5870;DHT22;2961;47.702;9.410;2023-10-31T10:12:41;10.90;99.90
5870;DHT22;2961;47.702;9.410;2023-10-31T10:15:09;10.90;99.90
5870;DHT22;2961;47.702;9.410;2023-10-31T10:17:36;11.00;99.90
5870;DHT22;2961;47.702;9.410;2023-10-31T10:20:05;11.10;99.90
5870;DHT22;2961;47.702;9.410;2023-10-31T10:22:36;11.10;99.90
5870;DHT22;2961;47.702;9.410;2023-10-31T10:25:06;11.10;99.90
5870;DHT22;2961;47.702;9.410;2023-10-31T10:27:33;11.30;99.90
5870;DHT22;2961;47.702;9.410;2023-10-31T10:29:59;11.30;99.90
5870;DHT22;2961;47.702;9.410;2023-10-31T10:32:26;11.40;99.90
5870;DHT22;2961;47.702;9.410;2023-10-31T10:34:54;11.50;99.90
5870;DHT22;2961;47.702;9.410;2023-10-31T10:37:21;11.50;99.90
5870;DHT22;2961;47.702;9.410;2023-10-31T10:39:51;11.50;99.90
5870;DHT22;2961;47.702;9.410;2023-10-31T10:42:31;11.60;99.90
5870;DHT22;2961;47.702;9.410;2023-10-31T10:45:02;11.60;99.90
5870;DHT22;2961;47.702;9.410;2023-10-31T10:47:31;11.60;99.90
5870;DHT22;2961;47.702;9.410;2023-10-31T10:49:59;11.70;99.90
5870;DHT22;2961;47.702;9.410;2023-10-31T10:52:29;11.60;99.90
5870;DHT22;2961;47.702;9.410;2023-10-31T10:55:01;11.70;99.90
5870;DHT22;2961;47.702;9.410;2023-10-31T10:57:37;11.70;99.90
5870;DHT22;2961;47.702;9.410;2023-10-31T11:00:06;11.70;99.90
5870;DHT22;2961;47.702;9.410;2023-10-31T11:02:35;11.80;99.90
5870;DHT22;2961;47.702;9.410;2023-10-31T11:05:02;11.80;99.90
5870;DHT22;2961;47.702;9.410;2023-10-31T11:07:30;12.00;99.90
5870;DHT22;2961;47.702;9.410;2023-10-31T11:09:59;12.10;99.90
5870;DHT22;2961;47.702;9.410;2023-10-31T11:12:29;12.20;99.90
5870;DHT22;2961;47.702;9.410;2023-10-31T11:14:58;12.30;99.90
5870;DHT22;2961;47.702;9.410;2023-10-31T11:17:28;12.50;99.90
5870;DHT22;2961;47.702;9.410;2023-10-31T11:19:56;12.50;99.90
5870;DHT22;2961;47.702;9.410;2023-10-31T11:22:23;12.40;99.90
5870;DHT22;2961;47.702;9.410;2023-10-31T11:24:50;12.40;99.90
5870;DHT22;2961;47.702;9.410;2023-10-31T11:27:18;12.20;99.90
5870;DHT22;2961;47.702;9.410;2023-10-31T11:29:45;12.10;99.90
5870;DHT22;2961;47.702;9.410;2023-10-31T11:32:14;12.10;99.90
5870;DHT22;2961;47.702;9.410;2023-10-31T11:34:42;12.10;99.90
5870;DHT22;2961;47.702;9.410;2023-10-31T11:37:19;12.10;99.90
5870;DHT22;2961;47.702;9.410;2023-10-31T11:40:15;12.10;99.90
5870;DHT22;2961;47.702;9.410;2023-10-31T11:42:42;12.00;99.90
5870;DHT22;2961;47.702;9.410;2023-10-31T11:45:09;12.00;99.90
5870;DHT22;2961;47.702;9.410;2023-10-31T11:47:47;12.10;99.90
5870;DHT22;2961;47.702;9.410;2023-10-31T11:50:14;12.20;99.90
5870;DHT22;2961;47.702;9.410;2023-10-31T11:52:41;12.30;99.90
5870;DHT22;2961;47.702;9.410;2023-10-31T11:55:09;12.50;99.90
5870;DHT22;2961;47.702;9.410;2023-10-31T11:57:36;12.60;99.90
5870;DHT22;2961;47.702;9.410;2023-10-31T12:00:04;12.80;99.90
5870;DHT22;2961;47.702;9.410;2023-10-31T12:02:31;12.80;99.90
5870;DHT22;2961;47.702;9.410;2023-10-31T12:05:09;12.70;99.90
5870;DHT22;2961;47.702;9.410;2023-10-31T12:07:42;12.50;99.90
5870;DHT22;2961;47.702;9.410;2023-10-31T12:10:09;12.40;99.90
5870;DHT22;2961;47.702;9.410;2023-10-31T12:12:36;12.40;99.90
5870;DHT22;2961;47.702;9.410;2023-10-31T12:15:06;12.30;99.90
5870;DHT22;2961;47.702;9.410;2023-10-31T12:17:33;12.10;99.90
5870;DHT22;2961;47.702;9.410;2023-10-31T12:20:03;12.10;99.90
5870;DHT22;2961;47.702;9.410;2023-10-31T12:22:31;12.10;99.90
5870;DHT22;2961;47.702;9.410;2023-10-31T12:25:01;12.20;99.90
5870;DHT22;2961;47.702;9.410;2023-10-31T12:27:42;12.30;99.90
5870;DHT22;2961;47.702;9.410;2023-10-31T12:30:10;12.40;99.90
5870;DHT22;2961;47.702;9.410;2023-10-31T12:32:37;12.40;99.90
5870;DHT22;2961;47.702;9.410;2023-10-31T12:35:04;12.50;99.90
5870;DHT22;2961;47.702;9.410;2023-10-31T12:37:33;12.60;99.90
5870;DHT22;2961;47.702;9.410;2023-10-31T12:40:00;12.80;99.90
5870;DHT22;2961;47.702;9.410;2023-10-31T12:42:30;12.90;99.90
5870;DHT22;2961;47.702;9.410;2023-10-31T12:44:58;13.00;99.90
5870;DHT22;2961;47.702;9.410;2023-10-31T12:47:25;13.10;99.90
5870;DHT22;2961;47.702;9.410;2023-10-31T12:50:12;13.20;99.90
5870;DHT22;2961;47.702;9.410;2023-10-31T12:52:48;13.30;99.90
5870;DHT22;2961;47.702;9.410;2023-10-31T12:55:16;13.10;99.90
5870;DHT22;2961;47.702;9.410;2023-10-31T12:57:43;12.90;99.90
5870;DHT22;2961;47.702;9.410;2023-10-31T13:00:12;12.80;99.90
5870;DHT22;2961;47.702;9.410;2023-10-31T13:02:40;12.60;99.90
5870;DHT22;2961;47.702;9.410;2023-10-31T13:05:11;12.50;99.90
5870;DHT22;2961;47.702;9.410;2023-10-31T13:07:38;12.40;99.90
5870;DHT22;2961;47.702;9.410;2023-10-31T13:10:08;12.30;99.90
5870;DHT22;2961;47.702;9.410;2023-10-31T13:12:35;12.20;99.90
5870;DHT22;2961;47.702;9.410;2023-10-31T13:15:03;12.20;99.90
5870;DHT22;2961;47.702;9.410;2023-10-31T13:17:31;12.10;99.90
5870;DHT22;2961;47.702;9.410;2023-10-31T13:19:58;12.00;99.90
5870;DHT22;2961;47.702;9.410;2023-10-31T13:22:24;11.90;99.90
5870;DHT22;2961;47.702;9.410;2023-10-31T13:24:51;11.90;99.90
5870;DHT22;2961;47.702;9.410;2023-10-31T13:27:19;11.90;99.90
5870;DHT22;2961;47.702;9.410;2023-10-31T13:29:46;11.90;99.90
5870;DHT22;2961;47.702;9.410;2023-10-31T13:32:15;12.00;99.90
5870;DHT22;2961;47.702;9.410;2023-10-31T13:34:42;12.00;99.90
5870;DHT22;2961;47.702;9.410;2023-10-31T13:37:09;12.10;99.90
5870;DHT22;2961;47.702;9.410;2023-10-31T13:39:36;12.20;99.90
5870;DHT22;2961;47.702;9.410;2023-10-31T13:42:03;12.20;99.90
5870;DHT22;2961;47.702;9.410;2023-10-31T13:44:31;12.10;99.90
5870;DHT22;2961;47.702;9.410;2023-10-31T13:46:59;12.10;99.90
5870;DHT22;2961;47.702;9.410;2023-10-31T13:49:26;12.00;99.90
5870;DHT22;2961;47.702;9.410;2023-10-31T13:51:53;11.90;99.90
5870;DHT22;2961;47.702;9.410;2023-10-31T13:54:20;11.90;99.90
5870;DHT22;2961;47.702;9.410;2023-10-31T13:56:46;11.80;99.90
5870;DHT22;2961;47.702;9.410;2023-10-31T13:59:13;11.70;99.90
5870;DHT22;2961;47.702;9.410;2023-10-31T14:01:41;11.60;99.90
5870;DHT22;2961;47.702;9.410;2023-10-31T14:04:09;11.60;99.90
5870;DHT22;2961;47.702;9.410;2023-10-31T14:06:38;11.50;99.90
5870;DHT22;2961;47.702;9.410;2023-10-31T14:09:06;11.50;99.90
5870;DHT22;2961;47.702;9.410;2023-10-31T14:11:33;11.40;99.90
5870;DHT22;2961;47.702;9.410;2023-10-31T14:14:00;11.40;99.90
5870;DHT22;2961;47.702;9.410;2023-10-31T14:16:31;11.40;99.90
5870;DHT22;2961;47.702;9.410;2023-10-31T14:18:59;11.50;99.90
5870;DHT22;2961;47.702;9.410;2023-10-31T14:21:27;11.40;99.90
5870;DHT22;2961;47.702;9.410;2023-10-31T14:23:54;11.30;99.90
5870;DHT22;2961;47.702;9.410;2023-10-31T14:26:21;11.30;99.90
5870;DHT22;2961;47.702;9.410;2023-10-31T14:28:49;11.20;99.90
5870;DHT22;2961;47.702;9.410;2023-10-31T14:31:16;11.20;99.90
5870;DHT22;2961;47.702;9.410;2023-10-31T14:33:43;11.10;99.90
5870;DHT22;2961;47.702;9.410;2023-10-31T14:36:11;11.00;99.90
5870;DHT22;2961;47.702;9.410;2023-10-31T14:38:39;10.90;99.90
5870;DHT22;2961;47.702;9.410;2023-10-31T14:41:06;10.90;99.90
5870;DHT22;2961;47.702;9.410;2023-10-31T14:43:34;10.90;99.90
5870;DHT22;2961;47.702;9.410;2023-10-31T14:46:01;10.90;99.90
5870;DHT22;2961;47.702;9.410;2023-10-31T14:48:28;10.90;99.90
5870;DHT22;2961;47.702;9.410;2023-10-31T14:50:55;10.90;99.90
5870;DHT22;2961;47.702;9.410;2023-10-31T14:53:24;10.90;99.90
5870;DHT22;2961;47.702;9.410;2023-10-31T14:55:50;10.80;99.90
5870;DHT22;2961;47.702;9.410;2023-10-31T14:58:20;10.80;99.90
5870;DHT22;2961;47.702;9.410;2023-10-31T15:00:47;10.70;99.90
5870;DHT22;2961;47.702;9.410;2023-10-31T15:03:16;10.70;99.90
5870;DHT22;2961;47.702;9.410;2023-10-31T15:05:42;10.60;99.90
5870;DHT22;2961;47.702;9.410;2023-10-31T15:08:09;10.60;99.90
5870;DHT22;2961;47.702;9.410;2023-10-31T15:10:37;10.60;99.90
5870;DHT22;2961;47.702;9.410;2023-10-31T15:13:04;10.50;99.90
5870;DHT22;2961;47.702;9.410;2023-10-31T15:15:31;10.50;99.90
5870;DHT22;2961;47.702;9.410;2023-10-31T15:17:58;10.50;99.90
5870;DHT22;2961;47.702;9.410;2023-10-31T15:20:26;10.40;99.90
5870;DHT22;2961;47.702;9.410;2023-10-31T15:22:52;10.40;99.90
5870;DHT22;2961;47.702;9.410;2023-10-31T15:25:20;10.40;99.90
5870;DHT22;2961;47.702;9.410;2023-10-31T15:27:48;10.30;99.90
5870;DHT22;2961;47.702;9.410;2023-10-31T15:30:14;10.30;99.90
5870;DHT22;2961;47.702;9.410;2023-10-31T15:32:41;10.30;99.90
5870;DHT22;2961;47.702;9.410;2023-10-31T15:35:08;10.30;99.90
5870;DHT22;2961;47.702;9.410;2023-10-31T15:37:35;10.30;99.90
5870;DHT22;2961;47.702;9.410;2023-10-31T15:40:03;10.20;99.90
5870;DHT22;2961;47.702;9.410;2023-10-31T15:42:30;10.20;99.90
5870;DHT22;2961;47.702;9.410;2023-10-31T15:44:58;10.20;99.90
5870;DHT22;2961;47.702;9.410;2023-10-31T15:47:26;10.20;99.90
5870;DHT22;2961;47.702;9.410;2023-10-31T15:49:53;10.20;99.90
5870;DHT22;2961;47.702;9.410;2023-10-31T15:52:19;10.20;99.90
5870;DHT22;2961;47.702;9.410;2023-10-31T15:54:46;10.20;99.90
5870;DHT22;2961;47.702;9.410;2023-10-31T15:57:13;10.20;99.90
5870;DHT22;2961;47.702;9.410;2023-10-31T15:59:42;10.20;99.90
5870;DHT22;2961;47.702;9.410;2023-10-31T16:02:10;10.20;99.90
5870;DHT22;2961;47.702;9.410;2023-10-31T16:04:37;10.20;99.90
5870;DHT22;2961;47.702;9.410;2023-10-31T16:07:04;10.20;99.90
5870;DHT22;2961;47.702;9.410;2023-10-31T16:09:34;10.20;99.90
5870;DHT22;2961;47.702;9.410;2023-10-31T16:12:01;10.10;99.90